Skip Navigation LinksHome page > Weather > Current weather Skip Navigation Links

Current Weather

Heathrow, London

For information only: do not use for flight planning or navigation.
Latest weather
Observation time Sunday, May 26, 2019 4:20 PM BST
Local time Sunday, May 26, 2019 4:36 PM BST
Flight conditions Visual Meteorological Conditions
Winds
Wind direction West (270°)
Wind speed 18 mph
Visibility 6.2 mi.
Sky condition
Ceiling 3,000 ft. broken clouds
Cloud layer scattered clouds 2,500 ft.
Cloud layer broken clouds 3,000 ft.
Cloud layer overcast 3,600 ft.
Temperature 66°F
Dewpoint 57°F
Altimeter 29.88 in.Hg
Derived measurements
Relative humidity 73%
Density altitude 733 ft.
Remarks
Fully automated report.
METAR EGLL 261520Z AUTO 27016KT 9999 SCT025 BKN030 OVC036 19/14 Q1012

Settings

Location code

InnerDrive.Weather 4.0.6770.0 Release CLR 4.0.30319.42000
Copyright ©2018 Inner Drive Technology. All rights reserved. Portions Copyright ©1986-2018 David Braverman.

Find weather

Site navigation


Skip Navigation Links

Place info

Page info

PayPal - The safer, easier way to pay online!

Return home.

Copyright ©2019 Inner Drive Technology. Purveyors of fine, hand-crafted computer software. Page printed 2019-05-26T15:36:12 UTC.